Fishtail, Montana
Current Conditions -  °F | °C
As of 5:53 AM on Friday 19 Dec 2014 (Local Time) from KLVM Reporting Station
Few Clouds Few Clouds  
Wind Chill: 27°   Ceiling: Unl
Heat Index: 38°   Visibility: 10mi
Dew Point: 20°   Wind: 22mph
Humidity: 48%   Direction: 260°W
Pressure: 29.93"   Gusts: 28mph
Location:  45.45°N, 109.51°W
Report Text: KLVM 191253Z AUTO 26019G24KT 10SM FEW095 03/M07 A2993 RMK AO2 PK WND 28030/1159 SLP147 T00331067
Loading
Personal Weather Stations






























Interactive Weather Map New forecast layout! Learn more

10-Day Weather Forecast

Advertisements
Track Severe Weather on mobile